createdAt,value
2022-09-03T00:15:05.304Z,98679.05
2022-09-03T00:22:07.355Z,98670.80
2022-09-03T00:38:10.940Z,98670.20
2022-09-03T00:41:31.612Z,98665.73
2022-09-03T00:49:10.044Z,98662.52
2022-09-03T01:00:58.025Z,98661.45
2022-09-03T01:17:22.125Z,98660.48
2022-09-03T02:23:31.147Z,98658.81
2022-09-03T02:26:04.715Z,98660.63
2022-09-03T02:33:48.166Z,98660.52
2022-09-03T02:40:42.682Z,98651.88
2022-09-03T02:52:50.183Z,98645.46
2022-09-03T02:55:51.844Z,98650.05
2022-09-03T02:58:31.648Z,98655.60
2022-09-03T03:05:59.248Z,98650.45
2022-09-03T03:09:26.472Z,98652.95
2022-09-03T03:11:58.744Z,98658.97
2022-09-03T03:29:05.865Z,98666.82
2022-09-03T03:36:13.774Z,98667.37
2022-09-03T03:44:20.759Z,98665.48
2022-09-03T03:47:01.899Z,98665.49
2022-09-03T03:56:24.014Z,98669.40
2022-09-03T03:59:00.294Z,98670.00
2022-09-03T04:01:38.989Z,98672.94
2022-09-03T04:04:11.597Z,98671.31
2022-09-03T04:07:35.570Z,98670.97
2022-09-03T04:28:50.501Z,98664.13
2022-09-03T04:31:27.353Z,98660.39
2022-09-03T04:34:06.610Z,98661.94
2022-09-03T04:36:39.475Z,98661.77
2022-09-03T04:39:13.762Z,98663.20
2022-09-03T04:41:46.098Z,98660.41
2022-09-03T04:44:41.353Z,98664.11
2022-09-03T04:47:15.628Z,98665.58
2022-09-03T04:55:45.416Z,98675.89
2022-09-03T04:58:17.689Z,98678.15
2022-09-03T05:00:50.241Z,98678.35
2022-09-03T05:03:23.170Z,98683.02
2022-09-03T05:05:59.477Z,98676.23
2022-09-03T05:08:31.661Z,98676.47
2022-09-03T05:11:04.102Z,98679.40
2022-09-03T05:13:37.702Z,98682.05
2022-09-03T05:16:13.295Z,98683.98
2022-09-03T05:18:46.079Z,98685.51
2022-09-03T05:21:19.916Z,98687.55
2022-09-03T05:23:53.542Z,98693.83
2022-09-03T05:26:30.322Z,98699.09
2022-09-03T05:29:04.427Z,98697.30
2022-09-03T05:31:39.107Z,98698.96
2022-09-03T05:34:16.697Z,98699.17
2022-09-03T05:36:51.157Z,98699.23
2022-09-03T05:39:23.465Z,98697.84
2022-09-03T05:41:55.858Z,98699.85
2022-09-03T05:44:28.219Z,98706.12
2022-09-03T05:47:00.511Z,98707.63
2022-09-03T05:49:32.862Z,98702.94
2022-09-03T05:52:05.342Z,98700.06
2022-09-03T05:54:37.374Z,98697.14
2022-09-03T05:57:09.619Z,98693.96
2022-09-03T05:59:42.953Z,98692.89
2022-09-03T06:02:15.427Z,98688.71
2022-09-03T06:04:47.635Z,98682.59
2022-09-03T06:07:21.103Z,98687.41
2022-09-03T06:09:53.220Z,98689.75
2022-09-03T06:12:25.380Z,98684.71
2022-09-03T06:15:00.265Z,98688.29
2022-09-03T06:17:34.877Z,98691.90
2022-09-03T06:20:08.346Z,98692.81
2022-09-03T06:22:40.919Z,98686.89
2022-09-03T06:25:14.199Z,98679.81
2022-09-03T06:27:52.340Z,98670.92
2022-09-03T06:30:27.227Z,98665.80
2022-09-03T06:32:59.542Z,98664.52
2022-09-03T06:35:31.913Z,98669.40
2022-09-03T06:38:13.981Z,98680.25
2022-09-03T06:40:52.724Z,98679.90
2022-09-03T06:43:26.560Z,98679.56
2022-09-03T06:46:00.552Z,98677.63
2022-09-03T06:48:34.440Z,98667.67
2022-09-03T06:51:09.111Z,98666.27
2022-09-03T06:53:44.253Z,98662.48
2022-09-03T06:56:18.414Z,98666.17
2022-09-03T06:58:50.763Z,98668.04
2022-09-03T07:01:25.978Z,98664.96
2022-09-03T07:04:01.387Z,98670.84
2022-09-03T07:06:39.709Z,98670.73
2022-09-03T07:09:13.363Z,98667.80
2022-09-03T07:11:48.743Z,98660.63
2022-09-03T07:14:24.829Z,98663.45
2022-09-03T07:17:30.541Z,98666.28
2022-09-03T07:24:05.396Z,98670.61
2022-09-03T07:26:39.435Z,98670.50
2022-09-03T07:29:13.260Z,98671.52
2022-09-03T07:31:45.893Z,98667.92
2022-09-03T07:34:18.345Z,98666.41
2022-09-03T07:36:51.907Z,98660.98
2022-09-03T07:39:24.325Z,98659.67
2022-09-03T07:41:58.341Z,98659.63
2022-09-03T07:44:31.214Z,98668.42
2022-09-03T07:47:07.042Z,98667.74
2022-09-03T07:49:39.079Z,98655.44
2022-09-03T07:52:11.908Z,98652.02
2022-09-03T07:54:45.028Z,98650.26
2022-09-03T07:57:17.211Z,98651.65
2022-09-03T07:59:49.374Z,98644.85
2022-09-03T08:02:21.714Z,98656.45
2022-09-03T08:04:53.824Z,98655.39
2022-09-03T08:07:25.914Z,98661.70
2022-09-03T08:09:59.601Z,98658.04
2022-09-03T08:12:32.334Z,98660.91
2022-09-03T08:15:05.340Z,98646.35
2022-09-03T08:17:37.378Z,98642.38
2022-09-03T08:20:11.127Z,98648.62
2022-09-03T08:22:44.604Z,98646.84
2022-09-03T08:25:17.096Z,98648.13
2022-09-03T08:27:49.425Z,98644.65
2022-09-03T08:30:22.203Z,98638.11
2022-09-03T08:38:48.298Z,98634.12
2022-09-03T08:46:35.912Z,98628.90
2022-09-03T08:49:09.157Z,98625.15
2022-09-03T08:51:42.069Z,98623.45
2022-09-03T08:55:26.349Z,98609.13
2022-09-03T09:02:28.497Z,98606.88
2022-09-03T09:10:12.795Z,98593.83
2022-09-03T09:13:18.822Z,98593.33
2022-09-03T09:16:02.423Z,98594.67
2022-09-03T09:18:47.645Z,98600.93
2022-09-03T09:21:27.664Z,98589.26
2022-09-03T09:24:04.181Z,98592.73
2022-09-03T09:26:36.594Z,98596.92
2022-09-03T09:29:11.909Z,98593.23
2022-09-03T09:31:45.223Z,98582.19
2022-09-03T09:34:17.853Z,98593.80
2022-09-03T09:36:54.290Z,98592.58
2022-09-03T09:39:27.152Z,98583.54
2022-09-03T09:42:09.615Z,98573.88
2022-09-03T09:44:43.803Z,98579.27
2022-09-03T09:47:26.683Z,98585.73
2022-09-03T09:50:00.955Z,98581.00
2022-09-03T09:52:33.726Z,98583.38
2022-09-03T09:55:19.283Z,98585.60
2022-09-03T09:57:54.460Z,98584.25
2022-09-03T10:00:27.173Z,98582.16
2022-09-03T10:02:59.415Z,98589.14
2022-09-03T10:05:43.404Z,98585.55
2022-09-03T10:08:38.099Z,98582.09
2022-09-03T10:11:10.418Z,98587.31
2022-09-03T10:22:21.429Z,98585.20
2022-09-03T10:25:04.783Z,98577.65
2022-09-03T10:27:37.350Z,98574.27
2022-09-03T10:30:20.123Z,98580.83
2022-09-03T10:33:06.782Z,98581.81
2022-09-03T10:35:47.462Z,98582.16
2022-09-03T10:38:27.738Z,98585.15
2022-09-03T10:41:16.221Z,98586.91
2022-09-03T10:56:36.601Z,98591.31
2022-09-03T10:59:29.261Z,98580.07
2022-09-03T11:02:42.348Z,98575.56
2022-09-03T11:05:22.983Z,98571.69
2022-09-03T11:08:00.314Z,98578.23
2022-09-03T11:10:34.565Z,98579.65
2022-09-03T11:21:44.757Z,98589.06
2022-09-03T11:33:16.160Z,98589.30
2022-09-03T11:45:51.826Z,98586.60
2022-09-03T12:24:45.092Z,98571.67
2022-09-03T12:27:26.355Z,98570.80
2022-09-03T12:40:04.584Z,98558.42
2022-09-03T12:47:37.915Z,98555.00
2022-09-03T13:00:02.693Z,98566.95
2022-09-03T13:06:36.333Z,98567.41
2022-09-03T13:18:24.946Z,98563.13
2022-09-03T13:21:23.438Z,98563.66
2022-09-03T13:28:27.819Z,98554.80
2022-09-03T14:20:01.400Z,98539.10
2022-09-03T14:27:07.677Z,98540.23
2022-09-03T14:39:32.941Z,98542.03
2022-09-03T14:43:57.428Z,98539.45
2022-09-03T14:59:57.380Z,98529.63
2022-09-03T15:03:03.987Z,98528.48
2022-09-03T15:06:03.860Z,98517.61
2022-09-03T15:08:56.547Z,98511.48
2022-09-03T15:11:33.344Z,98508.83
2022-09-03T15:14:11.845Z,98510.53
2022-09-03T15:16:59.948Z,98512.33
2022-09-03T15:19:58.796Z,98523.02
2022-09-03T15:22:57.991Z,98522.81
2022-09-03T15:25:42.840Z,98515.11
2022-09-03T15:28:24.394Z,98508.70
2022-09-03T15:31:02.985Z,98508.55
2022-09-03T15:33:41.276Z,98512.34
2022-09-03T15:36:21.509Z,98509.53
2022-09-03T15:39:00.684Z,98512.63
2022-09-03T15:41:41.583Z,98513.21
2022-09-03T15:44:19.638Z,98515.05
2022-09-03T15:46:57.971Z,98519.44
2022-09-03T15:49:53.176Z,98519.95
2022-09-03T15:52:33.691Z,98520.82
2022-09-03T15:55:12.973Z,98517.91
2022-09-03T15:57:54.633Z,98518.77
2022-09-03T16:00:30.340Z,98522.86
2022-09-03T16:03:21.706Z,98520.92
2022-09-03T16:09:07.519Z,98521.15
2022-09-03T16:16:12.896Z,98532.63
2022-09-03T16:18:56.751Z,98534.27
2022-09-03T16:21:36.953Z,98535.37
2022-09-03T16:24:19.368Z,98534.20
2022-09-03T16:26:57.450Z,98535.95
2022-09-03T16:29:32.248Z,98529.08
2022-09-03T16:32:19.559Z,98537.46
2022-09-03T16:35:04.640Z,98538.39
2022-09-03T16:37:47.628Z,98540.23
2022-09-03T16:40:29.197Z,98548.73
2022-09-03T16:43:29.956Z,98555.31
2022-09-03T16:46:12.282Z,98562.64
2022-09-03T16:48:55.123Z,98562.09
2022-09-03T16:51:34.892Z,98567.13
2022-09-03T17:07:15.955Z,98569.30
2022-09-03T17:13:46.030Z,98579.45
2022-09-03T17:16:30.315Z,98578.52
2022-09-03T17:19:14.532Z,98578.81
2022-09-03T17:21:55.014Z,98581.31
2022-09-03T17:24:48.763Z,98582.46
2022-09-03T17:27:46.481Z,98583.58
2022-09-03T17:30:32.302Z,98585.77
2022-09-03T17:33:34.708Z,98590.81
2022-09-03T17:36:15.962Z,98595.59
2022-09-03T17:39:23.219Z,98597.92
2022-09-03T17:41:57.776Z,98601.30
2022-09-03T17:44:47.888Z,98601.08
2022-09-03T17:47:43.548Z,98608.11
2022-09-03T17:50:24.279Z,98611.55
2022-09-03T17:53:02.076Z,98618.11
2022-09-03T17:55:37.563Z,98613.94
2022-09-03T17:58:15.452Z,98618.29
2022-09-03T18:00:59.376Z,98617.60
2022-09-03T18:03:37.429Z,98623.21
2022-09-03T18:06:19.964Z,98626.48
2022-09-03T18:08:58.014Z,98628.23
2022-09-03T18:11:36.821Z,98629.78
2022-09-03T18:14:18.226Z,98629.83
2022-09-03T18:16:56.135Z,98630.30
2022-09-03T18:19:55.657Z,98633.02
2022-09-03T18:22:50.008Z,98637.23
2022-09-03T18:25:45.364Z,98638.27
2022-09-03T18:28:38.415Z,98635.41
2022-09-03T18:31:35.456Z,98637.03
2022-09-03T18:34:27.013Z,98638.86
2022-09-03T18:37:19.875Z,98643.54
2022-09-03T18:40:09.970Z,98640.41
2022-09-03T18:43:12.859Z,98640.04
2022-09-03T18:47:00.365Z,98641.58
2022-09-03T18:49:34.716Z,98643.19
2022-09-03T18:52:35.518Z,98645.66
2022-09-03T18:55:34.237Z,98637.06
2022-09-03T18:58:34.116Z,98643.65
2022-09-03T19:01:30.324Z,98640.95
2022-09-03T19:04:32.577Z,98641.27
2022-09-03T19:07:28.105Z,98640.05
2022-09-03T19:10:27.899Z,98642.76
2022-09-03T19:13:36.014Z,98645.45
2022-09-03T19:16:29.632Z,98647.02
2022-09-03T19:19:29.811Z,98647.05
2022-09-03T19:22:28.208Z,98650.55
2022-09-03T19:25:22.776Z,98651.12
2022-09-03T19:28:25.981Z,98653.89
2022-09-03T19:31:30.688Z,98655.27
2022-09-03T19:34:28.286Z,98654.40
2022-09-03T19:37:26.028Z,98657.14
2022-09-03T19:40:30.172Z,98655.34
2022-09-03T19:43:36.796Z,98658.30
2022-09-03T19:46:38.056Z,98655.89
2022-09-03T19:49:39.079Z,98659.27
2022-09-03T19:52:37.533Z,98659.20
2022-09-03T19:55:31.426Z,98664.60
2022-09-03T19:58:42.025Z,98659.30
2022-09-03T20:01:31.821Z,98658.27
2022-09-03T20:04:30.727Z,98659.36
2022-09-03T20:07:23.316Z,98659.83
2022-09-03T20:10:15.384Z,98658.34
2022-09-03T20:12:51.646Z,98660.66
2022-09-03T20:15:31.191Z,98660.99
2022-09-03T20:18:12.512Z,98664.63
2022-09-03T20:20:53.690Z,98663.44
2022-09-03T20:23:35.817Z,98665.73
2022-09-03T20:26:33.291Z,98660.77
2022-09-03T20:29:39.035Z,98666.08
2022-09-03T20:32:19.525Z,98667.41
2022-09-03T20:35:00.470Z,98670.21
2022-09-03T20:37:42.066Z,98673.68
2022-09-03T20:40:29.039Z,98671.78
2022-09-03T20:43:18.395Z,98670.95
2022-09-03T20:46:07.361Z,98674.91
2022-09-03T20:48:51.261Z,98678.56
2022-09-03T20:51:28.872Z,98678.80
2022-09-03T20:54:20.655Z,98679.77
2022-09-03T20:57:06.890Z,98676.73
2022-09-03T20:59:57.518Z,98674.41
2022-09-03T21:02:39.509Z,98675.70
2022-09-03T21:05:19.170Z,98673.67
2022-09-03T21:08:04.747Z,98668.89
2022-09-03T21:10:44.324Z,98669.02
2022-09-03T21:13:26.050Z,98673.98
2022-09-03T21:16:03.579Z,98676.44
2022-09-03T21:18:41.725Z,98676.99
2022-09-03T21:21:24.768Z,98679.19
2022-09-03T21:24:06.183Z,98681.30
2022-09-03T21:26:46.122Z,98682.33
2022-09-03T21:29:26.721Z,98679.23
2022-09-03T21:32:05.160Z,98678.64
2022-09-03T21:34:43.014Z,98683.88
2022-09-03T21:37:17.825Z,98686.89
2022-09-03T21:39:56.300Z,98688.77
2022-09-03T21:42:36.590Z,98691.52
2022-09-03T21:45:15.789Z,98692.87
2022-09-03T21:47:58.290Z,98698.82
2022-09-03T21:50:37.159Z,98697.75
2022-09-03T21:53:16.405Z,98693.63
2022-09-03T21:56:04.452Z,98696.15
2022-09-03T21:58:53.603Z,98698.02
2022-09-03T22:01:34.359Z,98695.41
2022-09-03T22:04:09.598Z,98700.70
2022-09-03T22:06:51.502Z,98699.30
2022-09-03T22:09:32.892Z,98694.46
2022-09-03T22:12:13.542Z,98700.02
2022-09-03T22:14:49.883Z,98697.70
2022-09-03T22:17:28.929Z,98698.13
2022-09-03T22:20:01.054Z,98695.13
2022-09-03T22:22:40.834Z,98696.92
2022-09-03T22:25:17.218Z,98693.95
2022-09-03T22:28:00.887Z,98690.23
2022-09-03T22:30:39.988Z,98690.11
2022-09-03T22:33:20.259Z,98696.50
2022-09-03T22:36:08.577Z,98698.44
2022-09-03T22:38:56.903Z,98697.49
2022-09-03T22:41:55.253Z,98701.14
2022-09-03T22:44:43.206Z,98704.16
2022-09-03T22:47:28.347Z,98701.59
2022-09-03T22:50:10.962Z,98703.11
2022-09-03T22:52:46.624Z,98702.38
2022-09-03T22:55:21.362Z,98701.23
2022-09-03T22:58:03.971Z,98703.02
2022-09-03T23:00:42.402Z,98700.20
2022-09-03T23:03:20.695Z,98700.76
2022-09-03T23:05:57.747Z,98696.80
2022-09-03T23:08:34.670Z,98696.64
2022-09-03T23:11:11.281Z,98695.36
2022-09-03T23:13:48.690Z,98688.98
2022-09-03T23:16:30.364Z,98690.32
2022-09-03T23:21:55.638Z,98697.23
2022-09-03T23:24:34.101Z,98697.31
2022-09-03T23:27:12.605Z,98696.20
2022-09-03T23:29:49.514Z,98697.02
2022-09-03T23:32:22.411Z,98698.31
2022-09-03T23:34:56.180Z,98702.95
2022-09-03T23:37:47.157Z,98708.59
2022-09-03T23:40:45.396Z,98713.70
2022-09-03T23:43:50.844Z,98710.77
2022-09-03T23:46:28.283Z,98717.64
2022-09-03T23:49:31.492Z,98714.11
2022-09-03T23:52:31.177Z,98715.09
2022-09-03T23:55:09.405Z,98717.02
2022-09-03T23:57:51.070Z,98721.63
